sensor_id;sensor_type;location;lat;lon;timestamp;P1;durP1;ratioP1;P2;durP2;ratioP2
11531;SDS011;5822;51.000;5.874;2023-03-23T00:01:21;13.82;;;13.13;;
11531;SDS011;5822;51.000;5.874;2023-03-23T00:03:51;13.68;;;12.98;;
11531;SDS011;5822;51.000;5.874;2023-03-23T00:06:18;14.00;;;13.30;;
11531;SDS011;5822;51.000;5.874;2023-03-23T00:08:46;13.10;;;12.50;;
11531;SDS011;5822;51.000;5.874;2023-03-23T00:11:18;13.30;;;12.70;;
11531;SDS011;5822;51.000;5.874;2023-03-23T00:13:46;12.93;;;12.32;;
11531;SDS011;5822;51.000;5.874;2023-03-23T00:16:16;13.43;;;12.75;;
11531;SDS011;5822;51.000;5.874;2023-03-23T00:18:45;13.90;;;13.20;;
11531;SDS011;5822;51.000;5.874;2023-03-23T00:21:17;13.68;;;12.98;;
11531;SDS011;5822;51.000;5.874;2023-03-23T00:23:50;13.50;;;12.80;;
11531;SDS011;5822;51.000;5.874;2023-03-23T00:26:17;13.15;;;12.55;;
11531;SDS011;5822;51.000;5.874;2023-03-23T00:28:43;12.90;;;12.30;;
11531;SDS011;5822;51.000;5.874;2023-03-23T00:31:11;13.20;;;12.50;;
11531;SDS011;5822;51.000;5.874;2023-03-23T00:33:38;13.20;;;12.60;;
11531;SDS011;5822;51.000;5.874;2023-03-23T00:36:09;13.32;;;12.73;;
11531;SDS011;5822;51.000;5.874;2023-03-23T00:38:36;13.10;;;12.50;;
11531;SDS011;5822;51.000;5.874;2023-03-23T00:41:03;13.00;;;12.40;;
11531;SDS011;5822;51.000;5.874;2023-03-23T00:43:30;13.45;;;12.75;;
11531;SDS011;5822;51.000;5.874;2023-03-23T00:45:56;13.30;;;12.70;;
11531;SDS011;5822;51.000;5.874;2023-03-23T00:48:26;14.02;;;13.32;;
11531;SDS011;5822;51.000;5.874;2023-03-23T00:50:53;13.50;;;12.88;;
11531;SDS011;5822;51.000;5.874;2023-03-23T00:53:19;13.35;;;12.65;;
11531;SDS011;5822;51.000;5.874;2023-03-23T00:55:45;12.98;;;12.38;;
11531;SDS011;5822;51.000;5.874;2023-03-23T00:58:12;12.70;;;12.10;;
11531;SDS011;5822;51.000;5.874;2023-03-23T01:00:39;12.80;;;12.20;;
11531;SDS011;5822;51.000;5.874;2023-03-23T01:03:05;13.10;;;12.50;;
11531;SDS011;5822;51.000;5.874;2023-03-23T01:05:35;13.40;;;12.80;;
11531;SDS011;5822;51.000;5.874;2023-03-23T01:08:02;13.45;;;12.77;;
11531;SDS011;5822;51.000;5.874;2023-03-23T01:10:28;13.55;;;12.85;;
11531;SDS011;5822;51.000;5.874;2023-03-23T01:12:57;13.18;;;12.50;;
11531;SDS011;5822;51.000;5.874;2023-03-23T01:15:23;13.48;;;12.77;;
11531;SDS011;5822;51.000;5.874;2023-03-23T01:17:49;13.07;;;12.48;;
11531;SDS011;5822;51.000;5.874;2023-03-23T01:20:15;13.20;;;12.55;;
11531;SDS011;5822;51.000;5.874;2023-03-23T01:22:44;13.73;;;13.02;;
11531;SDS011;5822;51.000;5.874;2023-03-23T01:25:10;13.05;;;12.45;;
11531;SDS011;5822;51.000;5.874;2023-03-23T01:27:37;13.35;;;12.75;;
11531;SDS011;5822;51.000;5.874;2023-03-23T01:30:05;14.33;;;13.63;;
11531;SDS011;5822;51.000;5.874;2023-03-23T01:32:32;13.20;;;12.60;;
11531;SDS011;5822;51.000;5.874;2023-03-23T01:34:58;13.20;;;12.60;;
11531;SDS011;5822;51.000;5.874;2023-03-23T01:37:24;13.18;;;12.57;;
11531;SDS011;5822;51.000;5.874;2023-03-23T01:39:55;13.25;;;12.65;;
11531;SDS011;5822;51.000;5.874;2023-03-23T01:42:25;12.80;;;12.20;;
11531;SDS011;5822;51.000;5.874;2023-03-23T01:47:39;13.18;;;12.57;;
11531;SDS011;5822;51.000;5.874;2023-03-23T01:50:05;13.30;;;12.70;;
11531;SDS011;5822;51.000;5.874;2023-03-23T01:52:31;13.43;;;12.80;;
11531;SDS011;5822;51.000;5.874;2023-03-23T01:54:58;13.65;;;12.95;;
11531;SDS011;5822;51.000;5.874;2023-03-23T01:57:25;13.53;;;12.93;;
11531;SDS011;5822;51.000;5.874;2023-03-23T01:59:52;12.60;;;12.00;;
11531;SDS011;5822;51.000;5.874;2023-03-23T02:02:21;13.00;;;12.40;;
11531;SDS011;5822;51.000;5.874;2023-03-23T02:04:49;13.10;;;12.50;;
11531;SDS011;5822;51.000;5.874;2023-03-23T02:07:17;13.60;;;12.90;;
11531;SDS011;5822;51.000;5.874;2023-03-23T02:09:45;13.20;;;12.60;;
11531;SDS011;5822;51.000;5.874;2023-03-23T02:12:10;13.50;;;12.90;;
11531;SDS011;5822;51.000;5.874;2023-03-23T02:14:37;13.00;;;12.40;;
11531;SDS011;5822;51.000;5.874;2023-03-23T02:24:57;12.68;;;12.07;;
11531;SDS011;5822;51.000;5.874;2023-03-23T02:35:39;12.65;;;12.05;;
11531;SDS011;5822;51.000;5.874;2023-03-23T02:38:30;12.80;;;12.20;;
11531;SDS011;5822;51.000;5.874;2023-03-23T02:41:00;12.68;;;12.07;;
11531;SDS011;5822;51.000;5.874;2023-03-23T02:43:30;12.45;;;11.85;;
11531;SDS011;5822;51.000;5.874;2023-03-23T02:46:02;12.50;;;11.90;;
11531;SDS011;5822;51.000;5.874;2023-03-23T02:48:31;12.70;;;12.10;;
11531;SDS011;5822;51.000;5.874;2023-03-23T02:51:01;12.40;;;11.90;;
11531;SDS011;5822;51.000;5.874;2023-03-23T02:53:28;12.98;;;12.38;;
11531;SDS011;5822;51.000;5.874;2023-03-23T02:55:55;12.70;;;12.10;;
11531;SDS011;5822;51.000;5.874;2023-03-23T02:58:23;12.85;;;12.25;;
11531;SDS011;5822;51.000;5.874;2023-03-23T03:00:49;13.20;;;12.60;;
11531;SDS011;5822;51.000;5.874;2023-03-23T03:03:19;13.35;;;12.65;;
11531;SDS011;5822;51.000;5.874;2023-03-23T03:06:09;13.30;;;12.60;;
11531;SDS011;5822;51.000;5.874;2023-03-23T03:08:55;12.70;;;12.10;;
11531;SDS011;5822;51.000;5.874;2023-03-23T03:11:49;13.00;;;12.40;;
11531;SDS011;5822;51.000;5.874;2023-03-23T03:14:22;13.00;;;12.40;;
11531;SDS011;5822;51.000;5.874;2023-03-23T03:17:01;12.97;;;12.37;;
11531;SDS011;5822;51.000;5.874;2023-03-23T03:19:40;13.18;;;12.57;;
11531;SDS011;5822;51.000;5.874;2023-03-23T03:22:09;12.77;;;12.18;;
11531;SDS011;5822;51.000;5.874;2023-03-23T03:24:36;12.60;;;12.00;;
11531;SDS011;5822;51.000;5.874;2023-03-23T03:27:03;12.88;;;12.27;;
11531;SDS011;5822;51.000;5.874;2023-03-23T03:29:35;12.90;;;12.30;;
11531;SDS011;5822;51.000;5.874;2023-03-23T03:32:03;13.03;;;12.43;;
11531;SDS011;5822;51.000;5.874;2023-03-23T03:34:32;12.90;;;12.30;;
11531;SDS011;5822;51.000;5.874;2023-03-23T03:36:59;13.35;;;12.75;;
11531;SDS011;5822;51.000;5.874;2023-03-23T03:39:25;12.90;;;12.30;;
11531;SDS011;5822;51.000;5.874;2023-03-23T03:41:52;12.80;;;12.20;;
11531;SDS011;5822;51.000;5.874;2023-03-23T03:44:19;12.90;;;12.30;;
11531;SDS011;5822;51.000;5.874;2023-03-23T03:46:44;12.70;;;12.10;;
11531;SDS011;5822;51.000;5.874;2023-03-23T03:49:10;13.10;;;12.50;;
11531;SDS011;5822;51.000;5.874;2023-03-23T03:51:40;13.10;;;12.50;;
11531;SDS011;5822;51.000;5.874;2023-03-23T03:54:06;13.00;;;12.40;;
11531;SDS011;5822;51.000;5.874;2023-03-23T03:56:31;12.88;;;12.27;;
11531;SDS011;5822;51.000;5.874;2023-03-23T03:59:00;13.02;;;12.43;;
11531;SDS011;5822;51.000;5.874;2023-03-23T04:01:27;12.90;;;12.30;;
11531;SDS011;5822;51.000;5.874;2023-03-23T04:03:54;12.85;;;12.25;;
11531;SDS011;5822;51.000;5.874;2023-03-23T04:06:21;12.70;;;12.10;;
11531;SDS011;5822;51.000;5.874;2023-03-23T04:08:47;12.70;;;12.10;;
11531;SDS011;5822;51.000;5.874;2023-03-23T04:11:13;13.00;;;12.40;;
11531;SDS011;5822;51.000;5.874;2023-03-23T04:13:40;13.00;;;12.40;;
11531;SDS011;5822;51.000;5.874;2023-03-23T04:16:06;12.80;;;12.20;;
11531;SDS011;5822;51.000;5.874;2023-03-23T04:18:33;12.63;;;12.02;;
11531;SDS011;5822;51.000;5.874;2023-03-23T04:21:02;12.50;;;11.90;;
11531;SDS011;5822;51.000;5.874;2023-03-23T04:23:29;13.00;;;12.40;;
11531;SDS011;5822;51.000;5.874;2023-03-23T04:25:58;12.98;;;12.38;;
11531;SDS011;5822;51.000;5.874;2023-03-23T04:28:24;13.15;;;12.55;;
11531;SDS011;5822;51.000;5.874;2023-03-23T04:30:51;12.90;;;12.30;;
11531;SDS011;5822;51.000;5.874;2023-03-23T04:33:20;13.10;;;12.50;;
11531;SDS011;5822;51.000;5.874;2023-03-23T04:35:50;12.90;;;12.30;;
11531;SDS011;5822;51.000;5.874;2023-03-23T04:38:17;12.82;;;12.23;;
11531;SDS011;5822;51.000;5.874;2023-03-23T04:40:45;12.90;;;12.30;;
11531;SDS011;5822;51.000;5.874;2023-03-23T04:43:11;12.87;;;12.27;;
11531;SDS011;5822;51.000;5.874;2023-03-23T04:45:37;13.10;;;12.50;;
11531;SDS011;5822;51.000;5.874;2023-03-23T04:48:06;13.18;;;12.48;;
11531;SDS011;5822;51.000;5.874;2023-03-23T04:50:33;13.33;;;12.63;;
11531;SDS011;5822;51.000;5.874;2023-03-23T04:53:01;13.43;;;12.83;;
11531;SDS011;5822;51.000;5.874;2023-03-23T04:55:29;13.93;;;13.23;;
11531;SDS011;5822;51.000;5.874;2023-03-23T04:57:56;13.98;;;13.27;;
11531;SDS011;5822;51.000;5.874;2023-03-23T05:00:25;13.77;;;13.07;;
11531;SDS011;5822;51.000;5.874;2023-03-23T05:02:51;13.20;;;12.60;;
11531;SDS011;5822;51.000;5.874;2023-03-23T05:05:18;13.20;;;12.60;;
11531;SDS011;5822;51.000;5.874;2023-03-23T05:07:44;13.50;;;12.80;;
11531;SDS011;5822;51.000;5.874;2023-03-23T05:10:12;13.20;;;12.60;;
11531;SDS011;5822;51.000;5.874;2023-03-23T05:12:40;13.75;;;13.05;;
11531;SDS011;5822;51.000;5.874;2023-03-23T05:15:06;14.02;;;13.32;;
11531;SDS011;5822;51.000;5.874;2023-03-23T05:17:33;13.80;;;13.10;;
11531;SDS011;5822;51.000;5.874;2023-03-23T05:20:00;14.00;;;13.30;;
11531;SDS011;5822;51.000;5.874;2023-03-23T05:22:28;14.57;;;13.77;;
11531;SDS011;5822;51.000;5.874;2023-03-23T05:24:57;13.52;;;12.93;;
11531;SDS011;5822;51.000;5.874;2023-03-23T05:27:24;14.10;;;13.40;;
11531;SDS011;5822;51.000;5.874;2023-03-23T05:29:53;13.88;;;13.18;;
11531;SDS011;5822;51.000;5.874;2023-03-23T05:32:18;13.90;;;13.20;;
11531;SDS011;5822;51.000;5.874;2023-03-23T05:34:44;14.48;;;13.75;;
11531;SDS011;5822;51.000;5.874;2023-03-23T05:37:11;14.00;;;13.30;;
11531;SDS011;5822;51.000;5.874;2023-03-23T05:39:38;14.27;;;13.57;;
11531;SDS011;5822;51.000;5.874;2023-03-23T05:42:05;13.90;;;13.20;;
11531;SDS011;5822;51.000;5.874;2023-03-23T05:44:31;14.10;;;13.40;;
11531;SDS011;5822;51.000;5.874;2023-03-23T05:46:57;14.40;;;13.60;;
11531;SDS011;5822;51.000;5.874;2023-03-23T05:49:22;14.27;;;13.57;;
11531;SDS011;5822;51.000;5.874;2023-03-23T05:51:49;14.23;;;13.43;;
11531;SDS011;5822;51.000;5.874;2023-03-23T05:54:15;13.83;;;13.13;;
11531;SDS011;5822;51.000;5.874;2023-03-23T05:56:41;14.15;;;13.45;;
11531;SDS011;5822;51.000;5.874;2023-03-23T05:59:07;14.45;;;13.65;;
11531;SDS011;5822;51.000;5.874;2023-03-23T06:01:34;14.85;;;14.05;;
11531;SDS011;5822;51.000;5.874;2023-03-23T06:04:00;14.20;;;13.50;;
11531;SDS011;5822;51.000;5.874;2023-03-23T06:06:27;14.00;;;13.30;;
11531;SDS011;5822;51.000;5.874;2023-03-23T06:08:54;13.98;;;13.27;;
11531;SDS011;5822;51.000;5.874;2023-03-23T06:11:21;13.98;;;13.27;;
11531;SDS011;5822;51.000;5.874;2023-03-23T06:13:48;14.27;;;13.48;;
11531;SDS011;5822;51.000;5.874;2023-03-23T06:16:14;14.40;;;13.60;;
11531;SDS011;5822;51.000;5.874;2023-03-23T06:18:40;14.30;;;13.60;;
11531;SDS011;5822;51.000;5.874;2023-03-23T06:21:07;14.10;;;13.40;;
11531;SDS011;5822;51.000;5.874;2023-03-23T06:23:34;14.30;;;13.60;;
11531;SDS011;5822;51.000;5.874;2023-03-23T06:26:01;14.00;;;13.30;;
11531;SDS011;5822;51.000;5.874;2023-03-23T06:28:30;14.10;;;13.40;;
11531;SDS011;5822;51.000;5.874;2023-03-23T06:30:58;14.15;;;13.45;;
11531;SDS011;5822;51.000;5.874;2023-03-23T06:33:31;14.10;;;13.40;;
11531;SDS011;5822;51.000;5.874;2023-03-23T06:35:58;14.32;;;13.60;;
11531;SDS011;5822;51.000;5.874;2023-03-23T06:38:24;13.77;;;13.07;;
11531;SDS011;5822;51.000;5.874;2023-03-23T06:40:53;14.32;;;13.63;;
11531;SDS011;5822;51.000;5.874;2023-03-23T06:43:20;14.35;;;13.55;;
11531;SDS011;5822;51.000;5.874;2023-03-23T06:45:46;14.30;;;13.50;;
11531;SDS011;5822;51.000;5.874;2023-03-23T06:48:12;14.35;;;13.55;;
11531;SDS011;5822;51.000;5.874;2023-03-23T06:50:38;14.20;;;13.50;;
11531;SDS011;5822;51.000;5.874;2023-03-23T06:53:07;14.40;;;13.60;;
11531;SDS011;5822;51.000;5.874;2023-03-23T06:55:32;14.38;;;13.57;;
11531;SDS011;5822;51.000;5.874;2023-03-23T06:57:58;13.87;;;13.17;;
11531;SDS011;5822;51.000;5.874;2023-03-23T07:00:26;14.15;;;13.45;;
11531;SDS011;5822;51.000;5.874;2023-03-23T07:02:52;14.30;;;13.50;;
11531;SDS011;5822;51.000;5.874;2023-03-23T07:05:18;14.10;;;13.40;;
11531;SDS011;5822;51.000;5.874;2023-03-23T07:07:44;14.30;;;13.50;;
11531;SDS011;5822;51.000;5.874;2023-03-23T07:10:10;14.57;;;13.80;;
11531;SDS011;5822;51.000;5.874;2023-03-23T07:12:36;14.40;;;13.70;;
11531;SDS011;5822;51.000;5.874;2023-03-23T07:15:03;14.65;;;13.85;;
11531;SDS011;5822;51.000;5.874;2023-03-23T07:17:29;14.20;;;13.50;;
11531;SDS011;5822;51.000;5.874;2023-03-23T07:19:56;14.00;;;13.30;;
11531;SDS011;5822;51.000;5.874;2023-03-23T07:22:22;14.40;;;13.70;;
11531;SDS011;5822;51.000;5.874;2023-03-23T07:24:48;13.80;;;13.10;;
11531;SDS011;5822;51.000;5.874;2023-03-23T07:27:13;14.07;;;13.38;;
11531;SDS011;5822;51.000;5.874;2023-03-23T07:29:40;14.88;;;14.18;;
11531;SDS011;5822;51.000;5.874;2023-03-23T07:32:06;15.20;;;14.40;;
11531;SDS011;5822;51.000;5.874;2023-03-23T07:34:35;14.10;;;13.40;;
11531;SDS011;5822;51.000;5.874;2023-03-23T07:37:02;13.80;;;13.10;;
11531;SDS011;5822;51.000;5.874;2023-03-23T07:39:28;14.30;;;13.50;;
11531;SDS011;5822;51.000;5.874;2023-03-23T07:41:54;14.50;;;13.70;;
11531;SDS011;5822;51.000;5.874;2023-03-23T07:44:20;14.23;;;13.43;;
11531;SDS011;5822;51.000;5.874;2023-03-23T07:46:46;14.23;;;13.43;;
11531;SDS011;5822;51.000;5.874;2023-03-23T07:49:12;14.13;;;13.43;;
11531;SDS011;5822;51.000;5.874;2023-03-23T07:51:38;14.60;;;13.80;;
11531;SDS011;5822;51.000;5.874;2023-03-23T07:54:04;14.00;;;13.30;;
11531;SDS011;5822;51.000;5.874;2023-03-23T07:56:31;14.23;;;13.43;;
11531;SDS011;5822;51.000;5.874;2023-03-23T07:58:57;13.73;;;13.02;;
11531;SDS011;5822;51.000;5.874;2023-03-23T08:01:23;14.13;;;13.32;;
11531;SDS011;5822;51.000;5.874;2023-03-23T08:03:49;13.90;;;13.20;;
11531;SDS011;5822;51.000;5.874;2023-03-23T08:06:16;14.20;;;13.40;;
11531;SDS011;5822;51.000;5.874;2023-03-23T08:08:41;14.60;;;13.70;;
11531;SDS011;5822;51.000;5.874;2023-03-23T08:11:07;14.40;;;13.60;;
11531;SDS011;5822;51.000;5.874;2023-03-23T08:13:33;14.48;;;13.68;;
11531;SDS011;5822;51.000;5.874;2023-03-23T08:16:00;14.10;;;13.38;;
11531;SDS011;5822;51.000;5.874;2023-03-23T08:18:29;14.18;;;13.48;;
11531;SDS011;5822;51.000;5.874;2023-03-23T08:20:56;14.27;;;13.57;;
11531;SDS011;5822;51.000;5.874;2023-03-23T08:23:22;14.13;;;13.32;;
11531;SDS011;5822;51.000;5.874;2023-03-23T08:25:48;14.33;;;13.53;;
11531;SDS011;5822;51.000;5.874;2023-03-23T08:28:14;14.10;;;13.40;;
11531;SDS011;5822;51.000;5.874;2023-03-23T08:30:40;14.20;;;13.47;;
11531;SDS011;5822;51.000;5.874;2023-03-23T08:33:06;14.60;;;13.80;;
11531;SDS011;5822;51.000;5.874;2023-03-23T08:35:35;14.20;;;13.40;;
11531;SDS011;5822;51.000;5.874;2023-03-23T08:38:01;13.80;;;13.10;;
11531;SDS011;5822;51.000;5.874;2023-03-23T08:40:28;14.00;;;13.30;;
11531;SDS011;5822;51.000;5.874;2023-03-23T08:42:54;14.10;;;13.30;;
11531;SDS011;5822;51.000;5.874;2023-03-23T08:45:21;13.98;;;13.27;;
11531;SDS011;5822;51.000;5.874;2023-03-23T08:47:49;14.00;;;13.30;;
11531;SDS011;5822;51.000;5.874;2023-03-23T08:50:17;14.40;;;13.60;;
11531;SDS011;5822;51.000;5.874;2023-03-23T08:52:45;14.00;;;13.30;;
11531;SDS011;5822;51.000;5.874;2023-03-23T08:55:12;14.30;;;13.50;;
11531;SDS011;5822;51.000;5.874;2023-03-23T08:57:38;14.25;;;13.45;;
11531;SDS011;5822;51.000;5.874;2023-03-23T09:00:06;14.52;;;13.73;;
11531;SDS011;5822;51.000;5.874;2023-03-23T09:02:40;14.50;;;13.70;;
11531;SDS011;5822;51.000;5.874;2023-03-23T09:05:07;13.90;;;13.20;;
11531;SDS011;5822;51.000;5.874;2023-03-23T09:07:35;13.77;;;13.07;;
11531;SDS011;5822;51.000;5.874;2023-03-23T09:10:02;14.25;;;13.45;;
11531;SDS011;5822;51.000;5.874;2023-03-23T09:12:28;13.85;;;13.20;;
11531;SDS011;5822;51.000;5.874;2023-03-23T09:14:55;14.38;;;13.57;;
11531;SDS011;5822;51.000;5.874;2023-03-23T09:17:21;14.20;;;13.40;;
11531;SDS011;5822;51.000;5.874;2023-03-23T09:19:46;13.80;;;13.10;;
11531;SDS011;5822;51.000;5.874;2023-03-23T09:22:12;14.00;;;13.30;;
11531;SDS011;5822;51.000;5.874;2023-03-23T09:24:37;14.80;;;14.00;;
11531;SDS011;5822;51.000;5.874;2023-03-23T09:27:03;14.60;;;13.88;;
11531;SDS011;5822;51.000;5.874;2023-03-23T09:29:29;14.63;;;13.82;;
11531;SDS011;5822;51.000;5.874;2023-03-23T09:31:55;14.90;;;14.10;;
11531;SDS011;5822;51.000;5.874;2023-03-23T09:34:21;15.13;;;14.33;;
11531;SDS011;5822;51.000;5.874;2023-03-23T09:36:47;15.23;;;14.43;;
11531;SDS011;5822;51.000;5.874;2023-03-23T09:39:13;15.00;;;14.20;;
11531;SDS011;5822;51.000;5.874;2023-03-23T09:44:50;13.90;;;13.20;;
11531;SDS011;5822;51.000;5.874;2023-03-23T09:55:02;17.60;;;16.60;;
11531;SDS011;5822;51.000;5.874;2023-03-23T10:00:29;17.95;;;16.85;;
11531;SDS011;5822;51.000;5.874;2023-03-23T10:03:05;18.05;;;16.85;;
11531;SDS011;5822;51.000;5.874;2023-03-23T10:05:41;18.15;;;16.95;;
11531;SDS011;5822;51.000;5.874;2023-03-23T10:08:20;18.20;;;17.00;;
11531;SDS011;5822;51.000;5.874;2023-03-23T10:11:02;18.30;;;17.10;;
11531;SDS011;5822;51.000;5.874;2023-03-23T10:16:50;17.90;;;16.80;;
11531;SDS011;5822;51.000;5.874;2023-03-23T10:21:29;17.70;;;16.60;;
11531;SDS011;5822;51.000;5.874;2023-03-23T10:24:04;17.50;;;16.40;;
11531;SDS011;5822;51.000;5.874;2023-03-23T10:29:12;17.38;;;16.27;;
11531;SDS011;5822;51.000;5.874;2023-03-23T10:32:08;17.20;;;16.10;;
11531;SDS011;5822;51.000;5.874;2023-03-23T10:34:44;17.10;;;16.00;;
11531;SDS011;5822;51.000;5.874;2023-03-23T10:37:30;17.45;;;16.30;;
11531;SDS011;5822;51.000;5.874;2023-03-23T10:40:02;18.00;;;16.80;;
11531;SDS011;5822;51.000;5.874;2023-03-23T10:42:35;17.90;;;16.70;;
11531;SDS011;5822;51.000;5.874;2023-03-23T10:47:58;17.50;;;16.40;;
11531;SDS011;5822;51.000;5.874;2023-03-23T10:50:38;17.70;;;16.50;;
11531;SDS011;5822;51.000;5.874;2023-03-23T10:53:13;17.90;;;16.80;;
11531;SDS011;5822;51.000;5.874;2023-03-23T10:55:46;18.52;;;17.42;;
11531;SDS011;5822;51.000;5.874;2023-03-23T10:58:21;19.10;;;17.90;;
11531;SDS011;5822;51.000;5.874;2023-03-23T11:00:59;20.05;;;18.85;;
11531;SDS011;5822;51.000;5.874;2023-03-23T11:06:07;18.20;;;17.10;;
11531;SDS011;5822;51.000;5.874;2023-03-23T11:08:36;17.10;;;16.10;;
11531;SDS011;5822;51.000;5.874;2023-03-23T11:11:17;18.67;;;17.60;;
11531;SDS011;5822;51.000;5.874;2023-03-23T11:14:31;16.67;;;15.67;;
11531;SDS011;5822;51.000;5.874;2023-03-23T11:16:55;16.70;;;15.70;;
11531;SDS011;5822;51.000;5.874;2023-03-23T11:19:27;16.60;;;15.60;;
11531;SDS011;5822;51.000;5.874;2023-03-23T11:24:30;16.83;;;15.82;;
11531;SDS011;5822;51.000;5.874;2023-03-23T11:27:01;16.85;;;15.85;;
11531;SDS011;5822;51.000;5.874;2023-03-23T11:29:31;16.80;;;15.70;;
11531;SDS011;5822;51.000;5.874;2023-03-23T11:34:31;16.70;;;15.70;;
11531;SDS011;5822;51.000;5.874;2023-03-23T11:37:02;16.83;;;15.82;;
11531;SDS011;5822;51.000;5.874;2023-03-23T11:39:35;17.30;;;16.20;;
11531;SDS011;5822;51.000;5.874;2023-03-23T11:42:20;16.30;;;15.30;;
11531;SDS011;5822;51.000;5.874;2023-03-23T11:50:43;16.55;;;15.55;;
11531;SDS011;5822;51.000;5.874;2023-03-23T11:53:31;16.30;;;15.30;;
11531;SDS011;5822;51.000;5.874;2023-03-23T11:56:28;16.00;;;15.00;;
11531;SDS011;5822;51.000;5.874;2023-03-23T11:59:02;16.38;;;15.38;;
11531;SDS011;5822;51.000;5.874;2023-03-23T12:01:46;16.42;;;15.43;;
11531;SDS011;5822;51.000;5.874;2023-03-23T12:13:12;18.10;;;17.00;;
11531;SDS011;5822;51.000;5.874;2023-03-23T12:15:53;16.73;;;15.73;;
11531;SDS011;5822;51.000;5.874;2023-03-23T12:21:37;15.85;;;14.93;;
11531;SDS011;5822;51.000;5.874;2023-03-23T12:24:27;16.33;;;15.32;;
11531;SDS011;5822;51.000;5.874;2023-03-23T12:33:13;16.23;;;15.23;;
11531;SDS011;5822;51.000;5.874;2023-03-23T12:38:45;16.20;;;15.25;;
11531;SDS011;5822;51.000;5.874;2023-03-23T12:41:35;15.83;;;14.93;;
11531;SDS011;5822;51.000;5.874;2023-03-23T12:44:06;16.10;;;15.10;;
11531;SDS011;5822;51.000;5.874;2023-03-23T12:54:57;16.00;;;15.07;;
11531;SDS011;5822;51.000;5.874;2023-03-23T13:00:17;16.40;;;15.40;;
11531;SDS011;5822;51.000;5.874;2023-03-23T13:02:46;16.35;;;15.35;;
11531;SDS011;5822;51.000;5.874;2023-03-23T13:05:27;15.98;;;15.07;;
11531;SDS011;5822;51.000;5.874;2023-03-23T13:10:49;16.48;;;15.57;;
11531;SDS011;5822;51.000;5.874;2023-03-23T13:13:21;16.15;;;15.15;;
11531;SDS011;5822;51.000;5.874;2023-03-23T13:21:13;15.90;;;15.00;;
11531;SDS011;5822;51.000;5.874;2023-03-23T13:23:50;16.45;;;15.40;;
11531;SDS011;5822;51.000;5.874;2023-03-23T13:26:19;16.10;;;15.10;;
11531;SDS011;5822;51.000;5.874;2023-03-23T13:31:16;16.60;;;15.60;;
11531;SDS011;5822;51.000;5.874;2023-03-23T13:33:50;15.90;;;15.00;;
11531;SDS011;5822;51.000;5.874;2023-03-23T13:36:23;15.73;;;14.82;;
11531;SDS011;5822;51.000;5.874;2023-03-23T13:39:03;16.48;;;15.48;;
11531;SDS011;5822;51.000;5.874;2023-03-23T13:41:54;16.30;;;15.30;;
11531;SDS011;5822;51.000;5.874;2023-03-23T13:44:44;16.70;;;15.70;;
11531;SDS011;5822;51.000;5.874;2023-03-23T13:50:01;17.40;;;16.40;;
11531;SDS011;5822;51.000;5.874;2023-03-23T14:10:59;16.67;;;15.57;;
11531;SDS011;5822;51.000;5.874;2023-03-23T14:13:36;15.88;;;14.98;;
11531;SDS011;5822;51.000;5.874;2023-03-23T14:16:04;16.08;;;15.07;;
11531;SDS011;5822;51.000;5.874;2023-03-23T14:18:40;16.10;;;15.10;;
11531;SDS011;5822;51.000;5.874;2023-03-23T14:21:16;16.70;;;15.70;;
11531;SDS011;5822;51.000;5.874;2023-03-23T14:23:46;16.30;;;15.30;;
11531;SDS011;5822;51.000;5.874;2023-03-23T14:26:19;18.27;;;17.08;;
11531;SDS011;5822;51.000;5.874;2023-03-23T14:28:49;18.10;;;17.00;;
11531;SDS011;5822;51.000;5.874;2023-03-23T14:31:18;18.40;;;17.30;;
11531;SDS011;5822;51.000;5.874;2023-03-23T14:33:44;18.05;;;16.95;;
11531;SDS011;5822;51.000;5.874;2023-03-23T14:36:10;15.90;;;14.90;;
11531;SDS011;5822;51.000;5.874;2023-03-23T14:38:36;16.30;;;15.30;;
11531;SDS011;5822;51.000;5.874;2023-03-23T14:41:04;15.73;;;14.82;;
11531;SDS011;5822;51.000;5.874;2023-03-23T14:43:31;15.55;;;14.65;;
11531;SDS011;5822;51.000;5.874;2023-03-23T14:45:59;16.10;;;15.10;;
11531;SDS011;5822;51.000;5.874;2023-03-23T14:48:27;16.88;;;15.77;;
11531;SDS011;5822;51.000;5.874;2023-03-23T14:50:57;16.45;;;15.45;;
11531;SDS011;5822;51.000;5.874;2023-03-23T14:53:35;16.27;;;15.27;;
11531;SDS011;5822;51.000;5.874;2023-03-23T14:56:10;16.10;;;15.10;;
11531;SDS011;5822;51.000;5.874;2023-03-23T14:58:38;15.90;;;14.90;;
11531;SDS011;5822;51.000;5.874;2023-03-23T15:01:09;15.52;;;14.63;;
11531;SDS011;5822;51.000;5.874;2023-03-23T15:03:41;16.05;;;15.05;;
11531;SDS011;5822;51.000;5.874;2023-03-23T15:06:32;16.30;;;15.20;;
11531;SDS011;5822;51.000;5.874;2023-03-23T15:09:02;16.08;;;15.15;;
11531;SDS011;5822;51.000;5.874;2023-03-23T15:11:34;15.82;;;14.93;;
11531;SDS011;5822;51.000;5.874;2023-03-23T15:14:07;15.63;;;14.73;;
11531;SDS011;5822;51.000;5.874;2023-03-23T15:16:44;15.77;;;14.77;;
11531;SDS011;5822;51.000;5.874;2023-03-23T15:19:15;16.20;;;15.30;;
11531;SDS011;5822;51.000;5.874;2023-03-23T15:24:27;17.00;;;16.10;;
11531;SDS011;5822;51.000;5.874;2023-03-23T15:27:10;17.50;;;16.50;;
11531;SDS011;5822;51.000;5.874;2023-03-23T15:29:48;18.90;;;17.80;;
11531;SDS011;5822;51.000;5.874;2023-03-23T15:32:22;17.25;;;16.30;;
11531;SDS011;5822;51.000;5.874;2023-03-23T15:34:51;16.90;;;15.90;;
11531;SDS011;5822;51.000;5.874;2023-03-23T15:37:35;16.90;;;16.00;;
11531;SDS011;5822;51.000;5.874;2023-03-23T15:40:13;16.38;;;15.38;;
11531;SDS011;5822;51.000;5.874;2023-03-23T15:42:47;16.27;;;15.32;;
11531;SDS011;5822;51.000;5.874;2023-03-23T15:45:21;15.70;;;14.80;;
11531;SDS011;5822;51.000;5.874;2023-03-23T15:47:51;16.70;;;15.70;;
11531;SDS011;5822;51.000;5.874;2023-03-23T15:50:19;16.10;;;15.20;;
11531;SDS011;5822;51.000;5.874;2023-03-23T15:52:51;15.60;;;14.70;;
11531;SDS011;5822;51.000;5.874;2023-03-23T15:55:24;15.50;;;14.60;;
11531;SDS011;5822;51.000;5.874;2023-03-23T15:57:55;15.52;;;14.63;;
11531;SDS011;5822;51.000;5.874;2023-03-23T16:00:23;15.57;;;14.68;;
11531;SDS011;5822;51.000;5.874;2023-03-23T16:02:55;16.10;;;15.13;;
11531;SDS011;5822;51.000;5.874;2023-03-23T16:05:23;15.60;;;14.70;;
11531;SDS011;5822;51.000;5.874;2023-03-23T16:07:49;16.00;;;15.00;;
11531;SDS011;5822;51.000;5.874;2023-03-23T16:10:16;16.33;;;15.32;;
11531;SDS011;5822;51.000;5.874;2023-03-23T16:12:44;16.30;;;15.30;;
11531;SDS011;5822;51.000;5.874;2023-03-23T16:15:10;16.48;;;15.57;;
11531;SDS011;5822;51.000;5.874;2023-03-23T16:17:37;15.90;;;15.00;;
11531;SDS011;5822;51.000;5.874;2023-03-23T16:20:14;16.40;;;15.40;;
11531;SDS011;5822;51.000;5.874;2023-03-23T16:22:40;16.88;;;15.88;;
11531;SDS011;5822;51.000;5.874;2023-03-23T16:25:06;16.58;;;15.68;;
11531;SDS011;5822;51.000;5.874;2023-03-23T16:27:33;15.65;;;14.75;;
11531;SDS011;5822;51.000;5.874;2023-03-23T16:29:58;16.20;;;15.20;;
11531;SDS011;5822;51.000;5.874;2023-03-23T16:32:27;15.45;;;14.55;;
11531;SDS011;5822;51.000;5.874;2023-03-23T16:34:52;15.90;;;15.00;;
11531;SDS011;5822;51.000;5.874;2023-03-23T16:37:18;15.37;;;14.47;;
11531;SDS011;5822;51.000;5.874;2023-03-23T16:39:44;16.10;;;15.00;;
11531;SDS011;5822;51.000;5.874;2023-03-23T16:42:09;15.63;;;14.73;;
11531;SDS011;5822;51.000;5.874;2023-03-23T16:44:35;15.98;;;14.98;;
11531;SDS011;5822;51.000;5.874;2023-03-23T16:47:00;15.45;;;14.55;;
11531;SDS011;5822;51.000;5.874;2023-03-23T16:49:26;15.47;;;14.57;;
11531;SDS011;5822;51.000;5.874;2023-03-23T16:51:52;15.20;;;14.40;;